createdAt,value
2016-06-25T00:00:35.909Z,1011.34
2016-06-25T00:01:35.906Z,1011.32
2016-06-25T00:02:35.881Z,1011.28
2016-06-25T00:03:35.891Z,1011.24
2016-06-25T00:04:35.856Z,1011.22
2016-06-25T00:05:35.839Z,1011.24
2016-06-25T00:06:35.828Z,1011.15
2016-06-25T00:07:35.811Z,1011.13
2016-06-25T00:08:35.793Z,1011.09
2016-06-25T00:09:35.783Z,1011.12
2016-06-25T00:10:35.773Z,1011.05
2016-06-25T00:11:35.762Z,1011.03
2016-06-25T00:12:35.743Z,1011.01
2016-06-25T00:13:35.729Z,1011.01
2016-06-25T00:14:35.723Z,1011.01
2016-06-25T00:15:35.708Z,1010.97
2016-06-25T00:16:35.691Z,1010.99
2016-06-25T00:17:35.675Z,1010.97
2016-06-25T00:18:35.662Z,1010.91
2016-06-25T00:19:35.647Z,1010.95
2016-06-25T00:20:35.632Z,1010.91
2016-06-25T00:21:35.624Z,1010.93
2016-06-25T00:22:35.603Z,1010.91
2016-06-25T00:23:35.594Z,1010.85
2016-06-25T00:24:35.581Z,1010.84
2016-06-25T00:25:35.562Z,1010.89
2016-06-25T00:26:35.552Z,1010.92
2016-06-25T00:27:35.533Z,1011.03
2016-06-25T00:28:35.521Z,1011.04
2016-06-25T00:29:35.503Z,1011.02
2016-06-25T00:30:35.494Z,1010.99
2016-06-25T00:31:35.479Z,1010.96
2016-06-25T00:32:35.465Z,1010.9
2016-06-25T00:33:35.456Z,1010.84
2016-06-25T00:34:35.436Z,1010.75
2016-06-25T00:35:35.423Z,1010.7
2016-06-25T00:36:35.410Z,1010.7
2016-06-25T00:37:35.396Z,1010.73
2016-06-25T00:38:35.384Z,1010.76
2016-06-25T00:39:35.371Z,1010.83
2016-06-25T00:40:35.359Z,1010.78
2016-06-25T00:41:35.589Z,1010.77
2016-06-25T00:42:35.326Z,1010.71
2016-06-25T00:43:35.314Z,1010.72
2016-06-25T00:44:35.299Z,1010.69
2016-06-25T00:45:35.290Z,1010.59
2016-06-25T00:46:35.277Z,1010.53
2016-06-25T00:47:35.259Z,1010.5
2016-06-25T00:48:35.243Z,1010.52
2016-06-25T00:49:35.683Z,1010.54
2016-06-25T00:50:35.221Z,1010.58
2016-06-25T00:51:35.202Z,1010.62
2016-06-25T00:52:35.191Z,1010.67
2016-06-25T00:53:35.178Z,1010.65
2016-06-25T00:54:35.166Z,1010.61
2016-06-25T00:55:35.150Z,1010.55
2016-06-25T00:56:35.134Z,1010.49
2016-06-25T00:57:35.674Z,1010.44
2016-06-25T00:58:35.104Z,1010.38
2016-06-25T00:59:35.098Z,1010.31
2016-06-25T01:00:35.075Z,1010.23
2016-06-25T01:01:35.072Z,1010.2
2016-06-25T01:02:35.048Z,1010.2
2016-06-25T01:03:35.039Z,1010.2
2016-06-25T01:04:35.025Z,1010.22
2016-06-25T01:05:35.618Z,1010.22
2016-06-25T01:06:34.997Z,1010.23
2016-06-25T01:07:34.985Z,1010.21
2016-06-25T01:08:34.978Z,1010.16
2016-06-25T01:09:34.956Z,1010.11
2016-06-25T01:10:34.939Z,1010.12
2016-06-25T01:11:34.931Z,1010.08
2016-06-25T01:12:34.915Z,1010.1
2016-06-25T01:13:35.597Z,1010
2016-06-25T01:14:34.882Z,1010.02
2016-06-25T01:15:34.874Z,1010.05
2016-06-25T01:16:34.855Z,1010.06
2016-06-25T01:17:34.846Z,1010.01
2016-06-25T01:18:34.851Z,1010.08
2016-06-25T01:19:34.818Z,1010.05
2016-06-25T01:20:34.803Z,1010.05
2016-06-25T01:21:35.744Z,1010
2016-06-25T01:22:34.777Z,1010.03
2016-06-25T01:23:34.770Z,1010.02
2016-06-25T01:24:34.747Z,1010.07
2016-06-25T01:25:34.731Z,1010.04
2016-06-25T01:26:34.727Z,1010.08
2016-06-25T01:27:34.704Z,1010.08
2016-06-25T01:28:34.690Z,1010.08
2016-06-25T01:29:34.878Z,1010.14
2016-06-25T01:30:34.663Z,1010.1
2016-06-25T01:31:34.649Z,1010.13
2016-06-25T01:32:34.636Z,1010.15
2016-06-25T01:33:34.623Z,1010.12
2016-06-25T01:34:34.607Z,1010.11
2016-06-25T01:35:34.602Z,1010.09
2016-06-25T01:36:34.581Z,1010.02
2016-06-25T01:37:34.919Z,1010.01
2016-06-25T01:38:34.557Z,1009.96
2016-06-25T01:39:34.538Z,1009.95
2016-06-25T01:40:34.527Z,1009.99
2016-06-25T01:41:34.506Z,1010.07
2016-06-25T01:42:34.500Z,1010.01
2016-06-25T01:43:34.484Z,1010.02
2016-06-25T01:44:34.467Z,1010.08
2016-06-25T01:45:35.660Z,1010.05
2016-06-25T01:46:34.438Z,1010.01
2016-06-25T01:47:34.427Z,1009.96
2016-06-25T01:48:34.411Z,1009.95
2016-06-25T01:49:34.422Z,1009.89
2016-06-25T01:50:34.392Z,1009.86
2016-06-25T01:51:34.374Z,1009.84
2016-06-25T01:52:34.355Z,1009.82
2016-06-25T01:53:34.353Z,1009.83
2016-06-25T01:54:34.330Z,1009.87
2016-06-25T01:55:34.318Z,1009.9
2016-06-25T01:56:34.305Z,1009.94
2016-06-25T01:57:34.299Z,1009.94
2016-06-25T01:58:34.275Z,1009.95
2016-06-25T01:59:34.262Z,1009.92
2016-06-25T02:00:34.246Z,1009.96
2016-06-25T02:01:34.233Z,1009.91
2016-06-25T02:02:34.217Z,1009.88
2016-06-25T02:03:34.208Z,1009.89
2016-06-25T02:04:34.190Z,1009.9
2016-06-25T02:05:34.179Z,1009.94
2016-06-25T02:06:34.170Z,1009.96
2016-06-25T02:07:34.156Z,1009.97
2016-06-25T02:08:34.139Z,1010
2016-06-25T02:09:34.125Z,1009.98
2016-06-25T02:10:34.113Z,1010.02
2016-06-25T02:11:34.095Z,1010.01
2016-06-25T02:12:34.079Z,1010.05
2016-06-25T02:13:34.066Z,1010.02
2016-06-25T02:14:34.052Z,1009.99
2016-06-25T02:15:34.040Z,1009.98
2016-06-25T02:16:34.025Z,1010.02
2016-06-25T02:17:34.010Z,1010
2016-06-25T02:18:33.999Z,1009.99
2016-06-25T02:19:33.984Z,1009.97
2016-06-25T02:20:33.970Z,1009.99
2016-06-25T02:21:33.960Z,1009.96
2016-06-25T02:22:33.942Z,1009.98
2016-06-25T02:23:33.924Z,1009.93
2016-06-25T02:24:33.914Z,1009.94
2016-06-25T02:25:33.907Z,1009.94
2016-06-25T02:26:33.880Z,1009.96
2016-06-25T02:27:33.870Z,1009.9
2016-06-25T02:28:33.854Z,1009.88
2016-06-25T02:29:33.854Z,1009.87
2016-06-25T02:30:33.830Z,1009.85
2016-06-25T02:31:33.814Z,1009.83
2016-06-25T02:32:33.802Z,1009.92
2016-06-25T02:33:33.788Z,1009.92
2016-06-25T02:34:33.786Z,1009.93
2016-06-25T02:35:33.760Z,1010.01
2016-06-25T02:36:33.753Z,1010
2016-06-25T02:37:33.730Z,1009.92
2016-06-25T02:38:33.722Z,1009.92
2016-06-25T02:39:33.717Z,1009.95
2016-06-25T02:40:33.690Z,1009.94
2016-06-25T02:41:33.685Z,1009.93
2016-06-25T02:42:33.666Z,1009.99
2016-06-25T02:43:33.647Z,1010
2016-06-25T02:44:33.642Z,1010.04
2016-06-25T02:45:33.619Z,1010.06
2016-06-25T02:46:33.610Z,1010.12
2016-06-25T02:47:33.597Z,1010.09
2016-06-25T02:48:33.583Z,1010.07
2016-06-25T02:49:33.563Z,1010.01
2016-06-25T02:50:33.554Z,1010
2016-06-25T02:51:33.542Z,1010.01
2016-06-25T02:52:33.525Z,1010.02
2016-06-25T02:53:33.512Z,1010
2016-06-25T02:54:33.498Z,1009.97
2016-06-25T02:55:33.486Z,1009.97
2016-06-25T02:56:33.483Z,1009.97
2016-06-25T02:57:33.458Z,1009.97
2016-06-25T02:58:33.439Z,1009.87
2016-06-25T02:59:33.434Z,1009.83
2016-06-25T03:00:33.419Z,1009.81
2016-06-25T03:01:33.397Z,1009.77
2016-06-25T03:02:33.391Z,1009.77
2016-06-25T03:03:33.372Z,1009.73
2016-06-25T03:04:33.356Z,1009.79
2016-06-25T03:05:33.344Z,1009.8
2016-06-25T03:06:33.332Z,1009.83
2016-06-25T03:07:33.322Z,1009.87
2016-06-25T03:08:33.303Z,1009.89
2016-06-25T03:09:33.284Z,1009.89
2016-06-25T03:10:33.274Z,1009.86
2016-06-25T03:11:33.259Z,1009.88
2016-06-25T03:12:33.247Z,1009.81
2016-06-25T03:13:33.234Z,1009.78
2016-06-25T03:14:33.215Z,1009.74
2016-06-25T03:15:33.263Z,1009.72
2016-06-25T03:16:33.196Z,1009.66
2016-06-25T03:17:33.222Z,1009.66
2016-06-25T03:18:33.169Z,1009.63
2016-06-25T03:19:33.153Z,1009.66
2016-06-25T03:20:33.187Z,1009.68
2016-06-25T03:21:33.135Z,1009.71
2016-06-25T03:22:33.178Z,1009.75
2016-06-25T03:23:33.097Z,1009.75
2016-06-25T03:24:33.077Z,1009.78
2016-06-25T03:25:33.067Z,1009.81
2016-06-25T03:26:33.050Z,1009.77
2016-06-25T03:27:33.038Z,1009.81
2016-06-25T03:28:33.030Z,1009.7
2016-06-25T03:29:33.013Z,1009.72
2016-06-25T03:30:32.995Z,1009.64
2016-06-25T03:31:32.982Z,1009.59
2016-06-25T03:32:32.970Z,1009.58
2016-06-25T03:33:32.961Z,1009.58
2016-06-25T03:34:32.942Z,1009.54
2016-06-25T03:35:32.929Z,1009.54
2016-06-25T03:36:32.913Z,1009.5
2016-06-25T03:37:32.899Z,1009.52
2016-06-25T03:38:32.885Z,1009.45
2016-06-25T03:39:32.869Z,1009.45
2016-06-25T03:40:32.857Z,1009.42
2016-06-25T03:41:32.843Z,1009.42
2016-06-25T03:42:32.833Z,1009.41
2016-06-25T03:43:32.816Z,1009.42
2016-06-25T03:44:32.801Z,1009.42
2016-06-25T03:45:32.788Z,1009.43
2016-06-25T03:46:32.779Z,1009.47
2016-06-25T03:47:32.762Z,1009.44
2016-06-25T03:48:32.746Z,1009.43
2016-06-25T03:49:32.731Z,1009.42
2016-06-25T03:50:32.719Z,1009.43
2016-06-25T03:51:32.700Z,1009.36
2016-06-25T03:52:32.689Z,1009.35
2016-06-25T03:53:32.671Z,1009.4
2016-06-25T03:54:32.660Z,1009.37
2016-06-25T03:55:32.673Z,1009.42
2016-06-25T03:56:32.639Z,1009.44
2016-06-25T03:57:32.620Z,1009.42
2016-06-25T03:58:32.605Z,1009.42
2016-06-25T03:59:32.591Z,1009.49
2016-06-25T04:00:32.574Z,1009.48
2016-06-25T04:01:32.581Z,1009.46
2016-06-25T04:02:32.550Z,1009.48
2016-06-25T04:03:32.540Z,1009.49
2016-06-25T04:04:32.522Z,1009.46
2016-06-25T04:05:32.524Z,1009.45
2016-06-25T04:06:32.501Z,1009.46
2016-06-25T04:07:32.483Z,1009.46
2016-06-25T04:08:32.478Z,1009.5
2016-06-25T04:09:32.449Z,1009.53
2016-06-25T04:10:32.437Z,1009.5
2016-06-25T04:11:32.427Z,1009.5
2016-06-25T04:12:32.411Z,1009.49
2016-06-25T04:13:32.403Z,1009.46
2016-06-25T04:14:32.387Z,1009.41
2016-06-25T04:15:32.369Z,1009.38
2016-06-25T04:16:32.366Z,1009.37
2016-06-25T04:17:32.345Z,1009.33
2016-06-25T04:18:32.325Z,1009.29
2016-06-25T04:19:32.311Z,1009.35
2016-06-25T04:20:32.303Z,1009.25
2016-06-25T04:21:32.287Z,1009.25
2016-06-25T04:22:32.270Z,1009.21
2016-06-25T04:23:32.259Z,1009.23
2016-06-25T04:24:32.244Z,1009.26
2016-06-25T04:25:32.227Z,1009.28
2016-06-25T04:26:32.216Z,1009.32
2016-06-25T04:27:32.204Z,1009.31
2016-06-25T04:28:32.189Z,1009.28
2016-06-25T04:29:32.179Z,1009.28
2016-06-25T04:30:32.168Z,1009.27
2016-06-25T04:31:32.150Z,1009.25
2016-06-25T04:32:32.135Z,1009.3
2016-06-25T04:33:32.121Z,1009.28
2016-06-25T04:34:32.108Z,1009.27
2016-06-25T04:35:32.089Z,1009.24
2016-06-25T04:36:32.077Z,1009.22
2016-06-25T04:37:32.062Z,1009.17
2016-06-25T04:38:32.050Z,1009.12
2016-06-25T04:39:32.037Z,1009.16
2016-06-25T04:40:32.024Z,1009.16
2016-06-25T04:41:32.010Z,1009.11
2016-06-25T04:42:32.001Z,1009.09
2016-06-25T04:43:31.981Z,1009.03
2016-06-25T04:44:31.974Z,1009.05
2016-06-25T04:45:31.952Z,1009.05
2016-06-25T04:46:31.942Z,1009.03
2016-06-25T04:47:31.930Z,1009.05
2016-06-25T04:48:31.918Z,1009.08
2016-06-25T04:49:31.898Z,1009.09
2016-06-25T04:50:31.883Z,1009.17
2016-06-25T04:51:31.876Z,1009.24
2016-06-25T04:52:31.862Z,1009.31
2016-06-25T04:53:31.846Z,1009.31
2016-06-25T04:54:31.831Z,1009.36
2016-06-25T04:55:31.817Z,1009.39
2016-06-25T04:56:31.798Z,1009.37
2016-06-25T04:57:31.789Z,1009.33
2016-06-25T04:58:31.769Z,1009.34
2016-06-25T04:59:31.761Z,1009.35
2016-06-25T05:00:31.747Z,1009.35
2016-06-25T05:01:31.734Z,1009.34
2016-06-25T05:02:31.718Z,1009.31
2016-06-25T05:03:31.702Z,1009.37
2016-06-25T05:04:31.692Z,1009.35
2016-06-25T05:05:31.676Z,1009.26
2016-06-25T05:06:31.672Z,1009.28
2016-06-25T05:07:31.650Z,1009.3
2016-06-25T05:08:31.640Z,1009.3
2016-06-25T05:09:31.623Z,1009.3
2016-06-25T05:10:31.607Z,1009.33
2016-06-25T05:11:31.595Z,1009.29
2016-06-25T05:12:31.583Z,1009.33
2016-06-25T05:13:31.568Z,1009.25
2016-06-25T05:14:31.556Z,1009.27
2016-06-25T05:15:31.541Z,1009.23
2016-06-25T05:16:31.525Z,1009.21
2016-06-25T05:17:31.510Z,1009.22
2016-06-25T05:18:31.495Z,1009.21
2016-06-25T05:19:31.484Z,1009.17
2016-06-25T05:20:31.472Z,1009.16
2016-06-25T05:21:31.463Z,1009.26
2016-06-25T05:22:31.441Z,1009.19
2016-06-25T05:23:31.427Z,1009.16
2016-06-25T05:24:31.421Z,1009.17
2016-06-25T05:25:31.403Z,1009.15
2016-06-25T05:26:31.393Z,1009.12
2016-06-25T05:27:31.373Z,1009.11
2016-06-25T05:28:31.361Z,1009.08
2016-06-25T05:29:31.347Z,1009.07
2016-06-25T05:30:31.332Z,1009.03
2016-06-25T05:31:31.317Z,1009.01
2016-06-25T05:32:31.303Z,1009.02
2016-06-25T05:33:31.293Z,1009.03
2016-06-25T05:34:31.280Z,1008.99
2016-06-25T05:35:31.262Z,1009.03
2016-06-25T05:36:31.245Z,1009.01
2016-06-25T05:37:31.236Z,1009.06
2016-06-25T05:38:31.221Z,1009.08
2016-06-25T05:39:31.207Z,1009.04
2016-06-25T05:40:31.197Z,1009.05
2016-06-25T05:41:31.182Z,1009.01
2016-06-25T05:42:31.164Z,1008.96
2016-06-25T05:43:31.151Z,1008.95
2016-06-25T05:44:31.137Z,1008.96
2016-06-25T05:45:31.132Z,1009.01
2016-06-25T05:46:31.111Z,1008.98
2016-06-25T05:47:31.098Z,1009.01
2016-06-25T05:48:31.084Z,1008.96
2016-06-25T05:49:31.070Z,1008.98
2016-06-25T05:50:31.054Z,1009
2016-06-25T05:51:31.054Z,1009.02
2016-06-25T05:52:31.029Z,1008.94
2016-06-25T05:53:31.017Z,1008.98
2016-06-25T05:54:30.995Z,1008.95
2016-06-25T05:55:30.988Z,1008.96
2016-06-25T05:56:30.969Z,1008.93
2016-06-25T05:57:30.957Z,1008.89
2016-06-25T05:58:30.946Z,1008.93
2016-06-25T05:59:30.931Z,1008.91
2016-06-25T06:00:30.925Z,1008.93
2016-06-25T06:01:30.904Z,1008.97
2016-06-25T06:02:30.884Z,1008.96
2016-06-25T06:03:30.875Z,1008.99
2016-06-25T06:04:30.862Z,1008.96
2016-06-25T06:05:30.848Z,1008.98
2016-06-25T06:06:30.832Z,1008.99
2016-06-25T06:07:30.824Z,1008.97
2016-06-25T06:08:30.806Z,1008.98
2016-06-25T06:09:30.794Z,1009.03
2016-06-25T06:10:30.777Z,1009.02
2016-06-25T06:11:30.763Z,1009.1
2016-06-25T06:12:30.754Z,1009.09
2016-06-25T06:13:30.741Z,1009.09
2016-06-25T06:14:30.723Z,1009.11
2016-06-25T06:15:30.716Z,1009.16
2016-06-25T06:16:30.694Z,1009.15
2016-06-25T06:17:30.680Z,1009.13
2016-06-25T06:18:30.665Z,1009.17
2016-06-25T06:19:30.650Z,1009.17
2016-06-25T06:20:30.639Z,1009.17
2016-06-25T06:21:30.627Z,1009.19
2016-06-25T06:22:30.616Z,1009.21
2016-06-25T06:23:30.599Z,1009.23
2016-06-25T06:24:30.583Z,1009.22
2016-06-25T06:25:30.572Z,1009.19
2016-06-25T06:26:30.565Z,1009.19
2016-06-25T06:27:30.544Z,1009.26
2016-06-25T06:28:30.527Z,1009.25
2016-06-25T06:29:30.518Z,1009.28
2016-06-25T06:30:30.503Z,1009.29
2016-06-25T06:31:30.484Z,1009.37
2016-06-25T06:32:30.474Z,1009.35
2016-06-25T06:33:30.461Z,1009.37
2016-06-25T06:34:30.447Z,1009.36
2016-06-25T06:35:30.436Z,1009.42
2016-06-25T06:36:30.419Z,1009.43
2016-06-25T06:37:30.405Z,1009.45
2016-06-25T06:38:30.389Z,1009.4
2016-06-25T06:39:30.376Z,1009.42
2016-06-25T06:40:30.358Z,1009.43
2016-06-25T06:41:30.344Z,1009.4
2016-06-25T06:42:30.336Z,1009.38
2016-06-25T06:43:30.321Z,1009.37
2016-06-25T06:44:30.305Z,1009.39
2016-06-25T06:45:30.301Z,1009.35
2016-06-25T06:46:30.277Z,1009.31
2016-06-25T06:47:30.274Z,1009.25
2016-06-25T06:48:30.248Z,1009.27
2016-06-25T06:49:30.248Z,1009.2
2016-06-25T06:50:30.220Z,1009.2
2016-06-25T06:51:30.211Z,1009.12
2016-06-25T06:52:30.195Z,1009.09
2016-06-25T06:53:30.178Z,1009.06
2016-06-25T06:54:30.163Z,1009.01
2016-06-25T06:55:30.156Z,1008.99
2016-06-25T06:56:30.146Z,1008.99
2016-06-25T06:57:30.126Z,1008.93
2016-06-25T06:58:30.110Z,1008.87
2016-06-25T06:59:30.097Z,1008.93
2016-06-25T07:00:30.081Z,1008.86
2016-06-25T07:01:30.072Z,1008.8
2016-06-25T07:02:30.060Z,1008.79
2016-06-25T07:03:30.049Z,1008.74
2016-06-25T07:04:30.031Z,1008.75
2016-06-25T07:05:30.020Z,1008.71
2016-06-25T07:06:29.995Z,1008.67
2016-06-25T07:07:29.989Z,1008.63
2016-06-25T07:08:29.974Z,1008.62
2016-06-25T07:09:29.962Z,1008.58
2016-06-25T07:10:29.943Z,1008.55
2016-06-25T07:11:29.929Z,1008.51
2016-06-25T07:12:29.914Z,1008.5
2016-06-25T07:13:29.916Z,1008.4
2016-06-25T07:14:29.897Z,1008.32
2016-06-25T07:15:29.875Z,1008.22
2016-06-25T07:16:29.869Z,1008.11
2016-06-25T07:17:29.847Z,1008.02
2016-06-25T07:18:29.844Z,1007.98
2016-06-25T07:19:29.975Z,1007.89
2016-06-25T07:20:29.812Z,1007.86
2016-06-25T07:21:29.798Z,1007.82
2016-06-25T07:22:29.780Z,1007.78
2016-06-25T07:23:29.777Z,1007.75
2016-06-25T07:24:29.755Z,1007.68
2016-06-25T07:25:29.764Z,1007.68
2016-06-25T07:26:29.732Z,1007.61
2016-06-25T07:27:29.974Z,1007.61
2016-06-25T07:28:29.702Z,1007.52
2016-06-25T07:29:29.689Z,1007.46
2016-06-25T07:30:29.671Z,1007.44
2016-06-25T07:31:29.652Z,1007.39
2016-06-25T07:32:29.642Z,1007.28
2016-06-25T07:33:29.626Z,1007.27
2016-06-25T07:34:29.614Z,1007.25
2016-06-25T07:35:29.953Z,1007.19
2016-06-25T07:36:29.589Z,1007.2
2016-06-25T07:37:29.581Z,1007.19
2016-06-25T07:38:29.563Z,1007.16
2016-06-25T07:39:29.552Z,1007.14
2016-06-25T07:40:29.535Z,1007.21
2016-06-25T07:41:29.518Z,1007.2
2016-06-25T07:42:29.502Z,1007.19
2016-06-25T07:43:30.006Z,1007.18
2016-06-25T07:44:29.481Z,1007.21
2016-06-25T07:45:29.463Z,1007.3
2016-06-25T07:46:29.447Z,1007.4
2016-06-25T07:47:29.444Z,1007.55
2016-06-25T07:48:29.426Z,1007.65
2016-06-25T07:49:29.402Z,1007.79
2016-06-25T07:50:29.395Z,1007.94
2016-06-25T07:51:29.975Z,1007.99
2016-06-25T07:52:29.367Z,1008.07
2016-06-25T07:53:29.349Z,1008.16
2016-06-25T07:54:29.336Z,1008.23
2016-06-25T07:55:29.336Z,1008.3
2016-06-25T07:56:29.306Z,1008.32
2016-06-25T07:57:29.297Z,1008.39
2016-06-25T07:58:29.281Z,1008.44
2016-06-25T07:59:29.270Z,1008.47
2016-06-25T08:00:29.249Z,1008.5
2016-06-25T08:01:29.239Z,1008.53
2016-06-25T08:02:29.226Z,1008.51
2016-06-25T08:03:29.208Z,1008.48
2016-06-25T08:04:29.199Z,1008.43
2016-06-25T08:05:29.179Z,1008.35
2016-06-25T08:06:29.187Z,1008.27
2016-06-25T08:07:29.257Z,1008.21
2016-06-25T08:08:29.146Z,1008.22
2016-06-25T08:09:29.126Z,1008.17
2016-06-25T08:10:29.109Z,1008.21
2016-06-25T08:11:29.097Z,1008.26
2016-06-25T08:12:29.086Z,1008.24
2016-06-25T08:13:29.067Z,1008.33
2016-06-25T08:14:29.060Z,1008.27
2016-06-25T08:15:29.292Z,1008.27
2016-06-25T08:16:29.029Z,1008.25
2016-06-25T08:17:29.012Z,1008.27
2016-06-25T08:18:28.999Z,1008.2
2016-06-25T08:19:29.001Z,1008.25
2016-06-25T08:20:28.973Z,1008.22
2016-06-25T08:21:28.957Z,1008.25
2016-06-25T08:22:28.947Z,1008.28
2016-06-25T08:23:29.287Z,1008.29
2016-06-25T08:24:28.918Z,1008.3
2016-06-25T08:25:28.901Z,1008.26
2016-06-25T08:26:28.908Z,1008.23
2016-06-25T08:27:28.874Z,1008.22
2016-06-25T08:28:28.867Z,1008.21
2016-06-25T08:29:28.847Z,1008.19
2016-06-25T08:30:28.835Z,1008.21
2016-06-25T08:31:29.269Z,1008.15
2016-06-25T08:32:28.802Z,1008.11
2016-06-25T08:33:28.790Z,1008.07
2016-06-25T08:34:28.774Z,1008.03
2016-06-25T08:35:28.771Z,1008.03
2016-06-25T08:36:28.753Z,1007.9
2016-06-25T08:37:28.735Z,1007.86
2016-06-25T08:38:28.726Z,1007.8
2016-06-25T08:39:28.707Z,1007.77
2016-06-25T08:40:28.694Z,1007.72
2016-06-25T08:41:28.683Z,1007.65
2016-06-25T08:42:28.667Z,1007.64
2016-06-25T08:43:28.657Z,1007.66
2016-06-25T08:44:28.650Z,1007.63
2016-06-25T08:45:28.638Z,1007.62
2016-06-25T08:46:28.609Z,1007.68
2016-06-25T08:47:28.595Z,1007.69
2016-06-25T08:48:28.586Z,1007.68
2016-06-25T08:49:28.571Z,1007.71
2016-06-25T08:50:28.556Z,1007.72
2016-06-25T08:51:28.535Z,1007.73
2016-06-25T08:52:28.527Z,1007.74
2016-06-25T08:53:28.512Z,1007.75
2016-06-25T08:54:28.501Z,1007.75
2016-06-25T08:55:28.484Z,1007.77
2016-06-25T08:56:28.478Z,1007.76
2016-06-25T08:57:28.459Z,1007.72
2016-06-25T08:58:28.444Z,1007.78
2016-06-25T08:59:28.431Z,1007.77
2016-06-25T09:00:28.418Z,1007.79
2016-06-25T09:01:28.406Z,1007.83
2016-06-25T09:02:28.387Z,1007.9
2016-06-25T09:03:28.376Z,1007.92
2016-06-25T09:04:28.358Z,1007.95
2016-06-25T09:05:28.346Z,1007.98
2016-06-25T09:06:28.333Z,1008.05
2016-06-25T09:07:28.317Z,1008.07
2016-06-25T09:08:28.305Z,1008.09
2016-06-25T09:09:28.300Z,1008.11
2016-06-25T09:10:28.273Z,1008.13
2016-06-25T09:11:28.264Z,1008.15
2016-06-25T09:12:28.246Z,1008.17
2016-06-25T09:13:28.238Z,1008.18
2016-06-25T09:14:28.222Z,1008.16
2016-06-25T09:15:28.208Z,1008.14
2016-06-25T09:16:28.194Z,1008.17
2016-06-25T09:17:28.182Z,1008.19
2016-06-25T09:18:28.171Z,1008.21
2016-06-25T09:19:28.152Z,1008.22
2016-06-25T09:20:28.141Z,1008.26
2016-06-25T09:21:28.125Z,1008.29
2016-06-25T09:22:28.122Z,1008.24
2016-06-25T09:23:28.104Z,1008.24
2016-06-25T09:24:28.091Z,1008.25
2016-06-25T09:25:28.067Z,1008.26
2016-06-25T09:26:28.060Z,1008.26
2016-06-25T09:27:28.040Z,1008.25
2016-06-25T09:28:28.028Z,1008.27
2016-06-25T09:29:28.023Z,1008.29
2016-06-25T09:30:28.006Z,1008.33
2016-06-25T09:31:27.988Z,1008.36
2016-06-25T09:32:27.971Z,1008.35
2016-06-25T09:33:27.958Z,1008.36
2016-06-25T09:34:27.944Z,1008.36
2016-06-25T09:35:27.938Z,1008.33
2016-06-25T09:36:27.914Z,1008.3
2016-06-25T09:37:27.902Z,1008.28
2016-06-25T09:38:27.886Z,1008.31
2016-06-25T09:39:27.873Z,1008.28
2016-06-25T09:40:27.860Z,1008.28
2016-06-25T09:41:27.849Z,1008.27
2016-06-25T09:42:27.834Z,1008.23
2016-06-25T09:43:27.819Z,1008.2
2016-06-25T09:44:27.803Z,1008.16
2016-06-25T09:45:27.788Z,1008.2
2016-06-25T09:46:27.773Z,1008.17
2016-06-25T09:47:27.766Z,1008.14
2016-06-25T09:48:27.751Z,1008.09
2016-06-25T09:49:27.739Z,1008.1
2016-06-25T09:50:27.720Z,1008.09
2016-06-25T09:51:27.704Z,1008.07
2016-06-25T09:52:27.694Z,1008.08
2016-06-25T09:53:27.678Z,1008.03
2016-06-25T09:54:27.667Z,1008.04
2016-06-25T09:55:27.651Z,1008.06
2016-06-25T09:56:27.645Z,1008.04
2016-06-25T09:57:27.623Z,1008.05
2016-06-25T09:58:27.616Z,1008.04
2016-06-25T09:59:27.596Z,1008.05
2016-06-25T10:00:27.586Z,1008.08
2016-06-25T10:01:27.568Z,1008.04
2016-06-25T10:02:27.552Z,1008.03
2016-06-25T10:03:27.543Z,1008.01
2016-06-25T10:04:27.527Z,1008.02
2016-06-25T10:05:27.511Z,1008
2016-06-25T10:06:27.498Z,1008.01
2016-06-25T10:07:27.488Z,1007.95
2016-06-25T10:08:27.466Z,1007.96
2016-06-25T10:09:27.451Z,1007.97
2016-06-25T10:10:27.441Z,1007.95
2016-06-25T10:11:27.427Z,1007.89
2016-06-25T10:12:27.415Z,1007.87
2016-06-25T10:13:27.402Z,1007.9
2016-06-25T10:14:27.403Z,1007.85
2016-06-25T10:15:27.370Z,1007.86
2016-06-25T10:16:27.356Z,1007.84
2016-06-25T10:17:27.339Z,1007.84
2016-06-25T10:18:27.331Z,1007.88
2016-06-25T10:19:27.322Z,1007.89
2016-06-25T10:20:27.306Z,1007.84
2016-06-25T10:21:27.283Z,1007.93
2016-06-25T10:22:27.276Z,1007.9
2016-06-25T10:23:27.261Z,1007.95
2016-06-25T10:24:27.241Z,1007.95
2016-06-25T10:25:27.237Z,1008.02
2016-06-25T10:26:27.212Z,1007.95
2016-06-25T10:27:27.197Z,1008
2016-06-25T10:28:27.186Z,1008.03
2016-06-25T10:29:27.170Z,1008.05
2016-06-25T10:30:27.154Z,1008.05
2016-06-25T10:31:27.142Z,1008.05
2016-06-25T10:32:27.128Z,1008.08
2016-06-25T10:33:27.112Z,1008.1
2016-06-25T10:34:27.093Z,1008.08
2016-06-25T10:35:27.083Z,1008.08
2016-06-25T10:36:27.068Z,1008.11
2016-06-25T10:37:27.053Z,1008.07
2016-06-25T10:38:27.045Z,1008.1
2016-06-25T10:39:27.034Z,1008.11
2016-06-25T10:40:27.007Z,1008.09
2016-06-25T10:41:26.995Z,1008.1
2016-06-25T10:42:26.979Z,1008.11
2016-06-25T10:43:26.974Z,1008.12
2016-06-25T10:44:26.952Z,1008.12
2016-06-25T10:45:26.938Z,1008.17
2016-06-25T10:46:26.924Z,1008.16
2016-06-25T10:47:26.911Z,1008.18
2016-06-25T10:48:26.899Z,1008.15
2016-06-25T10:49:26.878Z,1008.14
2016-06-25T10:50:26.871Z,1008.15
2016-06-25T10:51:26.855Z,1008.17
2016-06-25T10:52:26.841Z,1008.13
2016-06-25T10:53:26.833Z,1008.15
2016-06-25T10:54:26.840Z,1008.17
2016-06-25T10:55:26.797Z,1008.15
2016-06-25T10:56:26.788Z,1008.18
2016-06-25T10:57:26.769Z,1008.19
2016-06-25T10:58:26.752Z,1008.18
2016-06-25T10:59:26.739Z,1008.18
2016-06-25T11:00:26.726Z,1008.2
2016-06-25T11:01:26.713Z,1008.19
2016-06-25T11:02:26.696Z,1008.18
2016-06-25T11:03:26.682Z,1008.14
2016-06-25T11:04:26.665Z,1008.14
2016-06-25T11:05:26.654Z,1008.16
2016-06-25T11:06:26.644Z,1008.11
2016-06-25T11:07:26.629Z,1008.14
2016-06-25T11:08:26.614Z,1008.12
2016-06-25T11:09:26.598Z,1008.14
2016-06-25T11:10:26.582Z,1008.06
2016-06-25T11:11:26.570Z,1008.1
2016-06-25T11:12:26.555Z,1008.1
2016-06-25T11:13:26.551Z,1008.11
2016-06-25T11:14:26.548Z,1008.1
2016-06-25T11:15:26.509Z,1008.07
2016-06-25T11:16:26.493Z,1008.08
2016-06-25T11:17:26.495Z,1008.06
2016-06-25T11:18:26.478Z,1008.1
2016-06-25T11:19:26.456Z,1008.09
2016-06-25T11:20:26.462Z,1008.05
2016-06-25T11:21:26.427Z,1008.04
2016-06-25T11:22:26.412Z,1008.07
2016-06-25T11:23:26.393Z,1008.04
2016-06-25T11:24:26.386Z,1008.03
2016-06-25T11:25:26.375Z,1008.03
2016-06-25T11:26:26.358Z,1008
2016-06-25T11:27:26.337Z,1007.99
2016-06-25T11:28:26.328Z,1008.01
2016-06-25T11:29:26.313Z,1008.03
2016-06-25T11:30:26.298Z,1008.01
2016-06-25T11:31:26.290Z,1008.01
2016-06-25T11:32:26.265Z,1008.01
2016-06-25T11:33:26.257Z,1008.02
2016-06-25T11:34:26.237Z,1008.03
2016-06-25T11:35:26.222Z,1007.98
2016-06-25T11:36:26.208Z,1007.96
2016-06-25T11:37:26.193Z,1007.99
2016-06-25T11:38:26.186Z,1007.98
2016-06-25T11:39:26.170Z,1007.95
2016-06-25T11:40:26.155Z,1007.88
2016-06-25T11:41:26.143Z,1007.9
2016-06-25T11:42:26.175Z,1007.84
2016-06-25T11:43:26.108Z,1007.8
2016-06-25T11:44:26.096Z,1007.83
2016-06-25T11:45:26.081Z,1007.78
2016-06-25T11:46:26.071Z,1007.77
2016-06-25T11:47:26.053Z,1007.75
2016-06-25T11:48:26.044Z,1007.71
2016-06-25T11:49:26.029Z,1007.76
2016-06-25T11:50:26.319Z,1007.76
2016-06-25T11:51:25.993Z,1007.74
2016-06-25T11:52:25.980Z,1007.74
2016-06-25T11:53:25.966Z,1007.75
2016-06-25T11:54:25.957Z,1007.76
2016-06-25T11:55:25.945Z,1007.7
2016-06-25T11:56:25.931Z,1007.73
2016-06-25T11:57:25.909Z,1007.74
2016-06-25T11:58:26.309Z,1007.75
2016-06-25T11:59:25.881Z,1007.72
2016-06-25T12:00:25.869Z,1007.72
2016-06-25T12:01:25.852Z,1007.69
2016-06-25T12:02:25.836Z,1007.72
2016-06-25T12:03:25.820Z,1007.77
2016-06-25T12:04:25.811Z,1007.69
2016-06-25T12:05:25.794Z,1007.71
2016-06-25T12:06:26.178Z,1007.72
2016-06-25T12:07:25.769Z,1007.71
2016-06-25T12:08:25.754Z,1007.72